This is the latest recevied weather packets stored in our database for station/object DL1AIE-13. If no packets are shown the sender has not sent any weather packets the latest 10 day(s).
| Time | Temp. | Humidity | Pressure | Rain* | Wind** | Luminosity | Snow |
|---|---|---|---|---|---|---|---|
| 1777707748 | 20° C | 51% | 1022.4 hPa | 0 mm | - | - | - |
| 1777707145 | 18.89° C | 47% | 1022.6 hPa | 0 mm | - | - | - |
| 1777706545 | 17.78° C | 50% | 1022.6 hPa | 0 mm | - | - | - |
| 1777705938 | 16.67° C | 55% | 1022.6 hPa | 0 mm | - | - | - |
| 1777705354 | 15.56° C | 58% | 1022.7 hPa | 0 mm | - | - | - |
| 1777704750 | 15° C | 61% | 1023 hPa | 0 mm | - | - | - |
| 1777704147 | 13.89° C | 63% | 1022.9 hPa | 0 mm | - | - | - |
| 1777703543 | 13.33° C | 68% | 1022.9 hPa | 0 mm | - | - | - |
| 1777702942 | 12.78° C | 72% | 1023 hPa | 0 mm | - | - | - |
| 1777702336 | 12.78° C | 71% | 1023.1 hPa | 0 mm | - | - | - |
| 1777701752 | 11.11° C | 76% | 1023.1 hPa | 0 mm | - | - | - |
| 1777701149 | 11.11° C | 75% | 1023.1 hPa | 0 mm | - | - | - |
| 1777700545 | 9.44° C | 80% | 1023.1 hPa | 0 mm | - | - | - |
| 1777699941 | 8.89° C | 82% | 1023.1 hPa | 0 mm | - | - | - |
| 1777699338 | 7.78° C | 86% | 1023.1 hPa | 0 mm | - | - | - |
| 1777698754 | 8.33° C | 82% | 1023.1 hPa | 0 mm | - | - | - |
| 1777698151 | 7.22° C | 86% | 1023.2 hPa | 0 mm | - | - | - |
| 1777697551 | 7.22° C | 86% | 1023.1 hPa | 0 mm | - | - | - |
| 1777696944 | 6.67° C | 88% | 1023.1 hPa | 0 mm | - | - | - |
| 1777696339 | 6.67° C | 89% | 1023.1 hPa | 0 mm | - | - | - |
| 1777695736 | 6.11° C | 90% | 1023.1 hPa | 0 mm | - | - | - |
| 1777695153 | 5.56° C | 90% | 1023.2 hPa | 0 mm | - | - | - |
| 1777694549 | 6.11° C | 88% | 1023.1 hPa | 0 mm | - | - | - |
| 1777693945 | 6.11° C | 87% | 1023.2 hPa | 0 mm | - | - | - |
| 1777693342 | 6.67° C | 86% | 1023.2 hPa | 0 mm | - | - | - |
* Rain latest hour (hover to see other rain measurements)
** Current wind speed in m/s (hover to see current wind gust speed)